sensor_id;sensor_type;location;lat;lon;timestamp;P1;durP1;ratioP1;P2;durP2;ratioP2
13999;SDS011;7075;53.574;10.054;2023-12-14T00:01:15;3.53;;;1.73;;
13999;SDS011;7075;53.574;10.054;2023-12-14T00:03:41;2.03;;;1.40;;
13999;SDS011;7075;53.574;10.054;2023-12-14T00:06:09;2.67;;;1.57;;
13999;SDS011;7075;53.574;10.054;2023-12-14T00:08:35;2.30;;;1.33;;
13999;SDS011;7075;53.574;10.054;2023-12-14T00:11:05;2.10;;;1.30;;
13999;SDS011;7075;53.574;10.054;2023-12-14T00:13:32;2.50;;;1.20;;
13999;SDS011;7075;53.574;10.054;2023-12-14T00:15:58;1.40;;;1.30;;
13999;SDS011;7075;53.574;10.054;2023-12-14T00:18:24;2.23;;;1.20;;
13999;SDS011;7075;53.574;10.054;2023-12-14T00:20:50;3.27;;;1.40;;
13999;SDS011;7075;53.574;10.054;2023-12-14T00:23:17;3.77;;;1.40;;
13999;SDS011;7075;53.574;10.054;2023-12-14T00:25:44;3.73;;;1.27;;
13999;SDS011;7075;53.574;10.054;2023-12-14T00:28:10;1.50;;;1.40;;
13999;SDS011;7075;53.574;10.054;2023-12-14T00:30:36;1.13;;;1.03;;
13999;SDS011;7075;53.574;10.054;2023-12-14T00:33:02;2.43;;;1.20;;
13999;SDS011;7075;53.574;10.054;2023-12-14T00:35:28;1.37;;;1.27;;
13999;SDS011;7075;53.574;10.054;2023-12-14T00:37:54;2.23;;;1.37;;
13999;SDS011;7075;53.574;10.054;2023-12-14T00:40:20;1.60;;;1.20;;
13999;SDS011;7075;53.574;10.054;2023-12-14T00:42:46;4.97;;;1.40;;
13999;SDS011;7075;53.574;10.054;2023-12-14T00:45:12;4.57;;;1.50;;
13999;SDS011;7075;53.574;10.054;2023-12-14T00:47:39;1.53;;;1.20;;
13999;SDS011;7075;53.574;10.054;2023-12-14T00:50:06;1.80;;;1.20;;
13999;SDS011;7075;53.574;10.054;2023-12-14T00:52:32;1.60;;;1.20;;
13999;SDS011;7075;53.574;10.054;2023-12-14T00:54:58;2.60;;;1.10;;
13999;SDS011;7075;53.574;10.054;2023-12-14T00:57:24;1.47;;;1.20;;
13999;SDS011;7075;53.574;10.054;2023-12-14T00:59:50;1.07;;;0.90;;
13999;SDS011;7075;53.574;10.054;2023-12-14T01:02:17;1.80;;;1.03;;
13999;SDS011;7075;53.574;10.054;2023-12-14T01:04:46;3.13;;;1.40;;
13999;SDS011;7075;53.574;10.054;2023-12-14T01:07:16;1.93;;;1.10;;
13999;SDS011;7075;53.574;10.054;2023-12-14T01:09:44;2.13;;;0.97;;
13999;SDS011;7075;53.574;10.054;2023-12-14T01:12:10;1.67;;;0.90;;
13999;SDS011;7075;53.574;10.054;2023-12-14T01:14:36;3.50;;;1.00;;
13999;SDS011;7075;53.574;10.054;2023-12-14T01:17:02;2.93;;;1.50;;
13999;SDS011;7075;53.574;10.054;2023-12-14T01:19:29;1.50;;;1.27;;
13999;SDS011;7075;53.574;10.054;2023-12-14T01:21:55;2.87;;;1.17;;
13999;SDS011;7075;53.574;10.054;2023-12-14T01:24:21;1.40;;;1.10;;
13999;SDS011;7075;53.574;10.054;2023-12-14T01:26:48;1.63;;;1.30;;
13999;SDS011;7075;53.574;10.054;2023-12-14T01:29:15;2.93;;;1.33;;
13999;SDS011;7075;53.574;10.054;2023-12-14T01:31:41;1.93;;;1.40;;
13999;SDS011;7075;53.574;10.054;2023-12-14T01:34:07;0.90;;;0.87;;
13999;SDS011;7075;53.574;10.054;2023-12-14T01:36:35;2.03;;;1.50;;
13999;SDS011;7075;53.574;10.054;2023-12-14T01:39:01;4.40;;;1.57;;
13999;SDS011;7075;53.574;10.054;2023-12-14T01:41:27;4.27;;;1.20;;
13999;SDS011;7075;53.574;10.054;2023-12-14T01:43:54;3.27;;;1.63;;
13999;SDS011;7075;53.574;10.054;2023-12-14T01:46:20;4.00;;;1.33;;
13999;SDS011;7075;53.574;10.054;2023-12-14T01:48:46;2.33;;;1.20;;
13999;SDS011;7075;53.574;10.054;2023-12-14T01:51:12;1.93;;;1.20;;
13999;SDS011;7075;53.574;10.054;2023-12-14T01:53:38;1.90;;;1.40;;
13999;SDS011;7075;53.574;10.054;2023-12-14T01:56:06;3.77;;;1.40;;
13999;SDS011;7075;53.574;10.054;2023-12-14T01:58:32;1.40;;;0.93;;
13999;SDS011;7075;53.574;10.054;2023-12-14T02:03:24;2.60;;;1.10;;
13999;SDS011;7075;53.574;10.054;2023-12-14T02:05:51;6.07;;;1.20;;
13999;SDS011;7075;53.574;10.054;2023-12-14T02:08:17;1.40;;;1.10;;
13999;SDS011;7075;53.574;10.054;2023-12-14T02:10:43;2.83;;;1.10;;
13999;SDS011;7075;53.574;10.054;2023-12-14T02:13:09;3.57;;;1.40;;
13999;SDS011;7075;53.574;10.054;2023-12-14T02:15:36;1.77;;;1.10;;
13999;SDS011;7075;53.574;10.054;2023-12-14T02:18:02;4.03;;;1.20;;
13999;SDS011;7075;53.574;10.054;2023-12-14T02:20:28;4.37;;;1.40;;
13999;SDS011;7075;53.574;10.054;2023-12-14T02:22:54;2.63;;;1.10;;
13999;SDS011;7075;53.574;10.054;2023-12-14T02:25:21;2.00;;;1.10;;
13999;SDS011;7075;53.574;10.054;2023-12-14T02:27:47;1.83;;;1.10;;
13999;SDS011;7075;53.574;10.054;2023-12-14T02:30:14;3.30;;;1.10;;
13999;SDS011;7075;53.574;10.054;2023-12-14T02:32:40;2.20;;;1.10;;
13999;SDS011;7075;53.574;10.054;2023-12-14T02:35:07;2.30;;;0.93;;
13999;SDS011;7075;53.574;10.054;2023-12-14T02:37:33;1.60;;;1.10;;
13999;SDS011;7075;53.574;10.054;2023-12-14T02:40:02;3.13;;;1.47;;
13999;SDS011;7075;53.574;10.054;2023-12-14T02:42:28;2.67;;;1.07;;
13999;SDS011;7075;53.574;10.054;2023-12-14T02:44:54;3.23;;;1.43;;
13999;SDS011;7075;53.574;10.054;2023-12-14T02:47:20;2.07;;;1.27;;
13999;SDS011;7075;53.574;10.054;2023-12-14T02:49:46;7.20;;;1.60;;
13999;SDS011;7075;53.574;10.054;2023-12-14T02:52:12;1.63;;;1.40;;
13999;SDS011;7075;53.574;10.054;2023-12-14T02:54:39;2.43;;;1.30;;
13999;SDS011;7075;53.574;10.054;2023-12-14T02:57:05;1.80;;;1.37;;
13999;SDS011;7075;53.574;10.054;2023-12-14T02:59:32;2.17;;;1.40;;
13999;SDS011;7075;53.574;10.054;2023-12-14T03:01:58;2.90;;;1.10;;
13999;SDS011;7075;53.574;10.054;2023-12-14T03:04:24;4.43;;;1.10;;
13999;SDS011;7075;53.574;10.054;2023-12-14T03:06:50;1.63;;;0.93;;
13999;SDS011;7075;53.574;10.054;2023-12-14T03:09:16;3.33;;;1.00;;
13999;SDS011;7075;53.574;10.054;2023-12-14T03:11:44;4.03;;;1.50;;
13999;SDS011;7075;53.574;10.054;2023-12-14T03:14:10;2.00;;;1.10;;
13999;SDS011;7075;53.574;10.054;2023-12-14T03:16:36;1.00;;;0.90;;
13999;SDS011;7075;53.574;10.054;2023-12-14T03:19:02;2.03;;;1.27;;
13999;SDS011;7075;53.574;10.054;2023-12-14T03:21:29;2.13;;;1.40;;
13999;SDS011;7075;53.574;10.054;2023-12-14T03:23:55;5.30;;;1.33;;
13999;SDS011;7075;53.574;10.054;2023-12-14T03:26:21;3.30;;;1.17;;
13999;SDS011;7075;53.574;10.054;2023-12-14T03:28:47;1.50;;;0.97;;
13999;SDS011;7075;53.574;10.054;2023-12-14T03:31:13;1.47;;;1.10;;
13999;SDS011;7075;53.574;10.054;2023-12-14T03:33:40;1.23;;;1.13;;
13999;SDS011;7075;53.574;10.054;2023-12-14T03:36:06;2.00;;;1.50;;
13999;SDS011;7075;53.574;10.054;2023-12-14T03:38:33;2.87;;;1.20;;
13999;SDS011;7075;53.574;10.054;2023-12-14T03:40:59;3.27;;;1.30;;
13999;SDS011;7075;53.574;10.054;2023-12-14T03:43:26;3.00;;;1.30;;
13999;SDS011;7075;53.574;10.054;2023-12-14T03:45:52;1.97;;;1.23;;
13999;SDS011;7075;53.574;10.054;2023-12-14T03:48:18;2.27;;;1.10;;
13999;SDS011;7075;53.574;10.054;2023-12-14T03:50:44;1.80;;;1.20;;
13999;SDS011;7075;53.574;10.054;2023-12-14T03:53:10;2.03;;;1.17;;
13999;SDS011;7075;53.574;10.054;2023-12-14T03:55:36;1.80;;;1.23;;
13999;SDS011;7075;53.574;10.054;2023-12-14T03:58:03;2.50;;;1.93;;
13999;SDS011;7075;53.574;10.054;2023-12-14T04:00:29;2.70;;;1.03;;
13999;SDS011;7075;53.574;10.054;2023-12-14T04:02:55;3.37;;;1.43;;
13999;SDS011;7075;53.574;10.054;2023-12-14T04:05:21;1.73;;;1.30;;
13999;SDS011;7075;53.574;10.054;2023-12-14T04:07:47;5.30;;;1.40;;
13999;SDS011;7075;53.574;10.054;2023-12-14T04:10:13;3.20;;;1.43;;
13999;SDS011;7075;53.574;10.054;2023-12-14T04:12:39;2.57;;;1.30;;
13999;SDS011;7075;53.574;10.054;2023-12-14T04:15:06;3.10;;;1.70;;
13999;SDS011;7075;53.574;10.054;2023-12-14T04:17:33;5.00;;;1.33;;
13999;SDS011;7075;53.574;10.054;2023-12-14T04:19:59;2.67;;;1.30;;
13999;SDS011;7075;53.574;10.054;2023-12-14T04:22:26;4.53;;;1.57;;
13999;SDS011;7075;53.574;10.054;2023-12-14T04:25:05;2.10;;;1.37;;
13999;SDS011;7075;53.574;10.054;2023-12-14T04:27:31;3.30;;;1.60;;
13999;SDS011;7075;53.574;10.054;2023-12-14T04:29:57;3.17;;;1.07;;
13999;SDS011;7075;53.574;10.054;2023-12-14T04:32:23;2.40;;;1.70;;
13999;SDS011;7075;53.574;10.054;2023-12-14T04:34:49;1.63;;;1.13;;
13999;SDS011;7075;53.574;10.054;2023-12-14T04:37:15;1.97;;;1.57;;
13999;SDS011;7075;53.574;10.054;2023-12-14T04:39:42;3.13;;;1.20;;
13999;SDS011;7075;53.574;10.054;2023-12-14T04:42:08;2.43;;;1.37;;
13999;SDS011;7075;53.574;10.054;2023-12-14T04:44:34;1.77;;;1.67;;
13999;SDS011;7075;53.574;10.054;2023-12-14T04:47:00;1.57;;;1.20;;
13999;SDS011;7075;53.574;10.054;2023-12-14T04:49:26;5.00;;;1.50;;
13999;SDS011;7075;53.574;10.054;2023-12-14T04:51:52;3.00;;;1.90;;
13999;SDS011;7075;53.574;10.054;2023-12-14T04:54:18;3.87;;;1.73;;
13999;SDS011;7075;53.574;10.054;2023-12-14T04:56:47;2.07;;;1.33;;
13999;SDS011;7075;53.574;10.054;2023-12-14T04:59:13;4.80;;;1.53;;
13999;SDS011;7075;53.574;10.054;2023-12-14T05:01:40;2.00;;;1.60;;
13999;SDS011;7075;53.574;10.054;2023-12-14T05:04:06;4.67;;;2.10;;
13999;SDS011;7075;53.574;10.054;2023-12-14T05:06:32;5.50;;;1.73;;
13999;SDS011;7075;53.574;10.054;2023-12-14T05:09:00;5.33;;;1.33;;
13999;SDS011;7075;53.574;10.054;2023-12-14T05:11:29;3.33;;;1.80;;
13999;SDS011;7075;53.574;10.054;2023-12-14T05:13:55;2.93;;;1.50;;
13999;SDS011;7075;53.574;10.054;2023-12-14T05:16:21;3.80;;;2.30;;
13999;SDS011;7075;53.574;10.054;2023-12-14T05:18:47;2.47;;;1.70;;
13999;SDS011;7075;53.574;10.054;2023-12-14T05:21:17;3.07;;;1.90;;
13999;SDS011;7075;53.574;10.054;2023-12-14T05:23:43;3.00;;;1.77;;
13999;SDS011;7075;53.574;10.054;2023-12-14T05:26:09;5.33;;;1.87;;
13999;SDS011;7075;53.574;10.054;2023-12-14T05:28:35;2.67;;;2.00;;
13999;SDS011;7075;53.574;10.054;2023-12-14T05:31:01;2.43;;;1.57;;
13999;SDS011;7075;53.574;10.054;2023-12-14T05:33:28;2.07;;;1.87;;
13999;SDS011;7075;53.574;10.054;2023-12-14T05:35:54;3.90;;;2.23;;
13999;SDS011;7075;53.574;10.054;2023-12-14T05:38:20;4.77;;;1.90;;
13999;SDS011;7075;53.574;10.054;2023-12-14T05:40:46;2.20;;;1.80;;
13999;SDS011;7075;53.574;10.054;2023-12-14T05:43:12;5.33;;;2.30;;
13999;SDS011;7075;53.574;10.054;2023-12-14T05:45:38;4.33;;;2.63;;
13999;SDS011;7075;53.574;10.054;2023-12-14T05:48:04;3.53;;;2.03;;
13999;SDS011;7075;53.574;10.054;2023-12-14T05:50:30;5.00;;;2.07;;
13999;SDS011;7075;53.574;10.054;2023-12-14T05:52:57;3.17;;;1.83;;
13999;SDS011;7075;53.574;10.054;2023-12-14T05:55:23;2.83;;;1.90;;
13999;SDS011;7075;53.574;10.054;2023-12-14T05:57:49;4.33;;;2.20;;
13999;SDS011;7075;53.574;10.054;2023-12-14T06:00:15;4.67;;;2.97;;
13999;SDS011;7075;53.574;10.054;2023-12-14T06:02:41;4.57;;;2.40;;
13999;SDS011;7075;53.574;10.054;2023-12-14T06:05:07;3.20;;;1.70;;
13999;SDS011;7075;53.574;10.054;2023-12-14T06:07:33;4.43;;;2.33;;
13999;SDS011;7075;53.574;10.054;2023-12-14T06:09:59;4.17;;;2.10;;
13999;SDS011;7075;53.574;10.054;2023-12-14T06:12:27;3.80;;;2.53;;
13999;SDS011;7075;53.574;10.054;2023-12-14T06:14:53;4.43;;;2.13;;
13999;SDS011;7075;53.574;10.054;2023-12-14T06:17:19;3.90;;;2.43;;
13999;SDS011;7075;53.574;10.054;2023-12-14T06:19:45;5.00;;;2.90;;
13999;SDS011;7075;53.574;10.054;2023-12-14T06:22:11;3.20;;;2.17;;
13999;SDS011;7075;53.574;10.054;2023-12-14T06:24:37;4.03;;;2.50;;
13999;SDS011;7075;53.574;10.054;2023-12-14T06:27:03;4.23;;;2.63;;
13999;SDS011;7075;53.574;10.054;2023-12-14T06:29:29;5.37;;;2.90;;
13999;SDS011;7075;53.574;10.054;2023-12-14T06:31:56;5.80;;;2.70;;
13999;SDS011;7075;53.574;10.054;2023-12-14T06:34:22;5.43;;;2.70;;
13999;SDS011;7075;53.574;10.054;2023-12-14T06:36:48;3.80;;;2.73;;
13999;SDS011;7075;53.574;10.054;2023-12-14T06:39:14;6.83;;;2.83;;
13999;SDS011;7075;53.574;10.054;2023-12-14T06:41:41;6.47;;;3.47;;
13999;SDS011;7075;53.574;10.054;2023-12-14T06:44:07;3.90;;;2.83;;
13999;SDS011;7075;53.574;10.054;2023-12-14T06:46:34;4.60;;;3.03;;
13999;SDS011;7075;53.574;10.054;2023-12-14T06:49:01;4.90;;;3.63;;
13999;SDS011;7075;53.574;10.054;2023-12-14T06:51:27;6.73;;;3.30;;
13999;SDS011;7075;53.574;10.054;2023-12-14T06:53:53;6.07;;;3.20;;
13999;SDS011;7075;53.574;10.054;2023-12-14T06:56:19;5.93;;;2.93;;
13999;SDS011;7075;53.574;10.054;2023-12-14T06:58:45;5.40;;;3.43;;
13999;SDS011;7075;53.574;10.054;2023-12-14T07:01:14;6.13;;;3.73;;
13999;SDS011;7075;53.574;10.054;2023-12-14T07:03:41;6.03;;;3.70;;
13999;SDS011;7075;53.574;10.054;2023-12-14T07:06:11;4.97;;;3.57;;
13999;SDS011;7075;53.574;10.054;2023-12-14T07:08:37;5.57;;;3.67;;
13999;SDS011;7075;53.574;10.054;2023-12-14T07:11:03;4.53;;;3.27;;
13999;SDS011;7075;53.574;10.054;2023-12-14T07:13:30;5.00;;;3.03;;
13999;SDS011;7075;53.574;10.054;2023-12-14T07:15:56;6.30;;;3.20;;
13999;SDS011;7075;53.574;10.054;2023-12-14T07:18:22;5.57;;;3.27;;
13999;SDS011;7075;53.574;10.054;2023-12-14T07:20:48;7.13;;;3.40;;
13999;SDS011;7075;53.574;10.054;2023-12-14T07:23:14;9.60;;;4.23;;
13999;SDS011;7075;53.574;10.054;2023-12-14T07:25:40;4.63;;;3.03;;
13999;SDS011;7075;53.574;10.054;2023-12-14T07:28:06;6.87;;;3.33;;
13999;SDS011;7075;53.574;10.054;2023-12-14T07:30:32;5.40;;;3.87;;
13999;SDS011;7075;53.574;10.054;2023-12-14T07:32:58;5.23;;;3.60;;
13999;SDS011;7075;53.574;10.054;2023-12-14T07:35:24;7.30;;;3.60;;
13999;SDS011;7075;53.574;10.054;2023-12-14T07:37:50;4.30;;;2.80;;
13999;SDS011;7075;53.574;10.054;2023-12-14T07:40:16;5.50;;;3.23;;
13999;SDS011;7075;53.574;10.054;2023-12-14T07:42:43;5.73;;;3.77;;
13999;SDS011;7075;53.574;10.054;2023-12-14T07:45:09;3.63;;;3.03;;
13999;SDS011;7075;53.574;10.054;2023-12-14T07:47:35;5.53;;;3.20;;
13999;SDS011;7075;53.574;10.054;2023-12-14T07:50:01;8.07;;;3.57;;
13999;SDS011;7075;53.574;10.054;2023-12-14T07:52:28;5.10;;;2.67;;
13999;SDS011;7075;53.574;10.054;2023-12-14T07:54:55;7.53;;;3.27;;
13999;SDS011;7075;53.574;10.054;2023-12-14T07:57:21;6.27;;;3.00;;
13999;SDS011;7075;53.574;10.054;2023-12-14T07:59:48;4.83;;;3.00;;
13999;SDS011;7075;53.574;10.054;2023-12-14T08:02:14;6.80;;;3.30;;
13999;SDS011;7075;53.574;10.054;2023-12-14T08:04:41;2.67;;;2.37;;
13999;SDS011;7075;53.574;10.054;2023-12-14T08:07:07;5.17;;;3.20;;
13999;SDS011;7075;53.574;10.054;2023-12-14T08:09:33;6.50;;;3.20;;
13999;SDS011;7075;53.574;10.054;2023-12-14T08:11:59;5.53;;;3.07;;
13999;SDS011;7075;53.574;10.054;2023-12-14T08:14:25;6.13;;;3.40;;
13999;SDS011;7075;53.574;10.054;2023-12-14T08:16:51;7.00;;;3.83;;
13999;SDS011;7075;53.574;10.054;2023-12-14T08:19:17;5.57;;;3.03;;
13999;SDS011;7075;53.574;10.054;2023-12-14T08:21:43;5.03;;;3.63;;
13999;SDS011;7075;53.574;10.054;2023-12-14T08:24:09;3.43;;;3.13;;
13999;SDS011;7075;53.574;10.054;2023-12-14T08:26:35;4.53;;;2.87;;
13999;SDS011;7075;53.574;10.054;2023-12-14T08:29:02;5.37;;;3.20;;
13999;SDS011;7075;53.574;10.054;2023-12-14T08:31:28;6.00;;;3.20;;
13999;SDS011;7075;53.574;10.054;2023-12-14T08:33:54;5.90;;;3.20;;
13999;SDS011;7075;53.574;10.054;2023-12-14T08:36:20;4.60;;;3.37;;
13999;SDS011;7075;53.574;10.054;2023-12-14T08:38:46;6.70;;;3.23;;
13999;SDS011;7075;53.574;10.054;2023-12-14T08:41:15;4.63;;;3.40;;
13999;SDS011;7075;53.574;10.054;2023-12-14T08:43:41;6.03;;;3.30;;
13999;SDS011;7075;53.574;10.054;2023-12-14T08:46:07;8.53;;;3.20;;
13999;SDS011;7075;53.574;10.054;2023-12-14T08:48:33;3.93;;;3.20;;
13999;SDS011;7075;53.574;10.054;2023-12-14T08:51:00;3.97;;;2.70;;
13999;SDS011;7075;53.574;10.054;2023-12-14T08:53:26;4.97;;;3.20;;
13999;SDS011;7075;53.574;10.054;2023-12-14T08:55:53;6.47;;;3.53;;
13999;SDS011;7075;53.574;10.054;2023-12-14T08:58:19;3.43;;;3.13;;
13999;SDS011;7075;53.574;10.054;2023-12-14T09:00:45;5.07;;;3.07;;
13999;SDS011;7075;53.574;10.054;2023-12-14T09:03:11;5.73;;;3.03;;
13999;SDS011;7075;53.574;10.054;2023-12-14T09:05:37;3.47;;;2.97;;
13999;SDS011;7075;53.574;10.054;2023-12-14T09:08:07;6.33;;;3.27;;
13999;SDS011;7075;53.574;10.054;2023-12-14T09:10:33;5.40;;;3.27;;
13999;SDS011;7075;53.574;10.054;2023-12-14T09:13:00;6.23;;;2.93;;
13999;SDS011;7075;53.574;10.054;2023-12-14T09:15:29;4.73;;;3.37;;
13999;SDS011;7075;53.574;10.054;2023-12-14T09:17:55;5.47;;;3.03;;
13999;SDS011;7075;53.574;10.054;2023-12-14T09:20:24;5.87;;;3.30;;
13999;SDS011;7075;53.574;10.054;2023-12-14T09:22:50;3.43;;;3.10;;
13999;SDS011;7075;53.574;10.054;2023-12-14T09:25:16;6.87;;;2.97;;
13999;SDS011;7075;53.574;10.054;2023-12-14T09:27:43;4.40;;;3.17;;
13999;SDS011;7075;53.574;10.054;2023-12-14T09:30:09;3.67;;;2.90;;
13999;SDS011;7075;53.574;10.054;2023-12-14T09:32:36;4.90;;;2.77;;
13999;SDS011;7075;53.574;10.054;2023-12-14T09:35:02;3.30;;;2.67;;
13999;SDS011;7075;53.574;10.054;2023-12-14T09:37:28;4.63;;;2.63;;
13999;SDS011;7075;53.574;10.054;2023-12-14T09:39:54;4.30;;;3.00;;
13999;SDS011;7075;53.574;10.054;2023-12-14T09:42:20;4.70;;;2.90;;
13999;SDS011;7075;53.574;10.054;2023-12-14T09:44:51;5.23;;;3.30;;
13999;SDS011;7075;53.574;10.054;2023-12-14T09:47:18;6.33;;;3.77;;
13999;SDS011;7075;53.574;10.054;2023-12-14T09:49:44;5.27;;;2.87;;
13999;SDS011;7075;53.574;10.054;2023-12-14T09:52:11;6.43;;;3.33;;
13999;SDS011;7075;53.574;10.054;2023-12-14T09:54:37;4.10;;;3.43;;
13999;SDS011;7075;53.574;10.054;2023-12-14T09:57:03;6.10;;;3.70;;
13999;SDS011;7075;53.574;10.054;2023-12-14T09:59:30;6.90;;;3.37;;
13999;SDS011;7075;53.574;10.054;2023-12-14T10:02:12;4.97;;;3.83;;
13999;SDS011;7075;53.574;10.054;2023-12-14T10:04:39;7.00;;;3.60;;
13999;SDS011;7075;53.574;10.054;2023-12-14T10:07:05;5.37;;;3.43;;
13999;SDS011;7075;53.574;10.054;2023-12-14T10:09:36;5.57;;;3.50;;
13999;SDS011;7075;53.574;10.054;2023-12-14T10:12:06;6.07;;;3.50;;
13999;SDS011;7075;53.574;10.054;2023-12-14T10:14:32;3.57;;;3.17;;
13999;SDS011;7075;53.574;10.054;2023-12-14T10:17:19;5.73;;;3.10;;
13999;SDS011;7075;53.574;10.054;2023-12-14T10:19:46;6.90;;;3.60;;
13999;SDS011;7075;53.574;10.054;2023-12-14T10:22:16;6.93;;;3.47;;
13999;SDS011;7075;53.574;10.054;2023-12-14T10:24:48;5.33;;;3.63;;
13999;SDS011;7075;53.574;10.054;2023-12-14T10:27:15;3.70;;;2.90;;
13999;SDS011;7075;53.574;10.054;2023-12-14T10:29:41;4.73;;;3.23;;
13999;SDS011;7075;53.574;10.054;2023-12-14T10:32:11;7.00;;;3.30;;
13999;SDS011;7075;53.574;10.054;2023-12-14T10:34:37;4.60;;;3.27;;
13999;SDS011;7075;53.574;10.054;2023-12-14T10:37:05;5.67;;;2.93;;
13999;SDS011;7075;53.574;10.054;2023-12-14T10:39:34;5.20;;;2.70;;
13999;SDS011;7075;53.574;10.054;2023-12-14T10:42:02;4.23;;;2.77;;
13999;SDS011;7075;53.574;10.054;2023-12-14T10:44:30;4.57;;;2.97;;
13999;SDS011;7075;53.574;10.054;2023-12-14T10:46:56;3.60;;;2.90;;
13999;SDS011;7075;53.574;10.054;2023-12-14T10:49:24;4.60;;;2.87;;
13999;SDS011;7075;53.574;10.054;2023-12-14T10:51:58;4.23;;;2.93;;
13999;SDS011;7075;53.574;10.054;2023-12-14T10:54:25;4.10;;;3.10;;
13999;SDS011;7075;53.574;10.054;2023-12-14T10:56:55;3.87;;;2.93;;
13999;SDS011;7075;53.574;10.054;2023-12-14T10:59:21;4.30;;;2.60;;
13999;SDS011;7075;53.574;10.054;2023-12-14T11:01:52;4.50;;;2.80;;
13999;SDS011;7075;53.574;10.054;2023-12-14T11:04:20;6.33;;;3.73;;
13999;SDS011;7075;53.574;10.054;2023-12-14T11:06:47;5.77;;;2.73;;
13999;SDS011;7075;53.574;10.054;2023-12-14T11:09:14;3.80;;;2.80;;
13999;SDS011;7075;53.574;10.054;2023-12-14T11:11:43;3.30;;;2.63;;
13999;SDS011;7075;53.574;10.054;2023-12-14T11:14:13;5.90;;;2.90;;
13999;SDS011;7075;53.574;10.054;2023-12-14T11:16:43;2.83;;;2.43;;
13999;SDS011;7075;53.574;10.054;2023-12-14T11:24:23;7.87;;;3.10;;
13999;SDS011;7075;53.574;10.054;2023-12-14T11:26:52;2.87;;;2.57;;
13999;SDS011;7075;53.574;10.054;2023-12-14T11:29:18;4.27;;;2.47;;
13999;SDS011;7075;53.574;10.054;2023-12-14T11:31:45;4.30;;;2.80;;
13999;SDS011;7075;53.574;10.054;2023-12-14T11:34:11;3.23;;;2.90;;
13999;SDS011;7075;53.574;10.054;2023-12-14T11:36:37;5.20;;;3.07;;
13999;SDS011;7075;53.574;10.054;2023-12-14T11:39:09;3.30;;;3.00;;
13999;SDS011;7075;53.574;10.054;2023-12-14T11:41:36;3.70;;;2.83;;
13999;SDS011;7075;53.574;10.054;2023-12-14T11:44:04;3.73;;;2.30;;
13999;SDS011;7075;53.574;10.054;2023-12-14T11:46:30;6.07;;;3.03;;
13999;SDS011;7075;53.574;10.054;2023-12-14T11:48:57;4.43;;;3.30;;
13999;SDS011;7075;53.574;10.054;2023-12-14T11:51:23;4.40;;;2.93;;
13999;SDS011;7075;53.574;10.054;2023-12-14T11:53:50;6.23;;;3.47;;
13999;SDS011;7075;53.574;10.054;2023-12-14T11:56:17;4.07;;;2.93;;
13999;SDS011;7075;53.574;10.054;2023-12-14T11:58:43;5.27;;;3.03;;
13999;SDS011;7075;53.574;10.054;2023-12-14T12:01:17;6.57;;;3.30;;
13999;SDS011;7075;53.574;10.054;2023-12-14T12:03:43;5.20;;;3.10;;
13999;SDS011;7075;53.574;10.054;2023-12-14T12:06:19;5.33;;;2.70;;
13999;SDS011;7075;53.574;10.054;2023-12-14T12:08:46;3.60;;;2.80;;
13999;SDS011;7075;53.574;10.054;2023-12-14T12:11:15;5.47;;;3.00;;
13999;SDS011;7075;53.574;10.054;2023-12-14T12:13:41;5.60;;;3.10;;
13999;SDS011;7075;53.574;10.054;2023-12-14T12:16:07;5.43;;;2.90;;
13999;SDS011;7075;53.574;10.054;2023-12-14T12:18:33;7.37;;;3.20;;
13999;SDS011;7075;53.574;10.054;2023-12-14T12:20:59;5.90;;;3.07;;
13999;SDS011;7075;53.574;10.054;2023-12-14T12:23:30;4.13;;;3.20;;
13999;SDS011;7075;53.574;10.054;2023-12-14T12:25:56;3.50;;;2.87;;
13999;SDS011;7075;53.574;10.054;2023-12-14T12:28:23;8.67;;;3.67;;
13999;SDS011;7075;53.574;10.054;2023-12-14T12:30:49;5.43;;;3.33;;
13999;SDS011;7075;53.574;10.054;2023-12-14T12:33:14;5.20;;;3.13;;
13999;SDS011;7075;53.574;10.054;2023-12-14T12:35:40;5.60;;;3.07;;
13999;SDS011;7075;53.574;10.054;2023-12-14T12:38:06;6.30;;;3.57;;
13999;SDS011;7075;53.574;10.054;2023-12-14T12:40:33;5.73;;;3.73;;
13999;SDS011;7075;53.574;10.054;2023-12-14T12:42:59;5.83;;;3.37;;
13999;SDS011;7075;53.574;10.054;2023-12-14T12:45:25;7.37;;;3.70;;
13999;SDS011;7075;53.574;10.054;2023-12-14T12:47:52;5.83;;;3.60;;
13999;SDS011;7075;53.574;10.054;2023-12-14T12:50:18;7.77;;;3.87;;
13999;SDS011;7075;53.574;10.054;2023-12-14T12:52:45;6.73;;;3.60;;
13999;SDS011;7075;53.574;10.054;2023-12-14T12:55:13;8.10;;;4.17;;
13999;SDS011;7075;53.574;10.054;2023-12-14T12:57:39;7.73;;;3.97;;
13999;SDS011;7075;53.574;10.054;2023-12-14T13:00:07;7.37;;;4.30;;
13999;SDS011;7075;53.574;10.054;2023-12-14T13:02:40;9.20;;;4.40;;
13999;SDS011;7075;53.574;10.054;2023-12-14T13:05:07;5.93;;;3.50;;
13999;SDS011;7075;53.574;10.054;2023-12-14T13:07:33;4.53;;;3.50;;
13999;SDS011;7075;53.574;10.054;2023-12-14T13:10:00;8.07;;;4.20;;
13999;SDS011;7075;53.574;10.054;2023-12-14T13:12:26;6.13;;;3.83;;
13999;SDS011;7075;53.574;10.054;2023-12-14T13:14:53;7.63;;;3.97;;
13999;SDS011;7075;53.574;10.054;2023-12-14T13:17:19;7.00;;;3.70;;
13999;SDS011;7075;53.574;10.054;2023-12-14T13:19:45;6.50;;;3.73;;
13999;SDS011;7075;53.574;10.054;2023-12-14T13:22:11;7.53;;;3.57;;
13999;SDS011;7075;53.574;10.054;2023-12-14T13:24:38;6.90;;;4.37;;
13999;SDS011;7075;53.574;10.054;2023-12-14T13:27:04;8.27;;;4.63;;
13999;SDS011;7075;53.574;10.054;2023-12-14T13:29:30;8.87;;;3.97;;
13999;SDS011;7075;53.574;10.054;2023-12-14T13:31:57;8.70;;;3.50;;
13999;SDS011;7075;53.574;10.054;2023-12-14T13:34:24;3.83;;;3.17;;
13999;SDS011;7075;53.574;10.054;2023-12-14T13:36:50;9.13;;;4.77;;
13999;SDS011;7075;53.574;10.054;2023-12-14T13:39:16;8.93;;;4.37;;
13999;SDS011;7075;53.574;10.054;2023-12-14T13:41:42;6.00;;;3.83;;
13999;SDS011;7075;53.574;10.054;2023-12-14T13:44:08;8.43;;;4.07;;
13999;SDS011;7075;53.574;10.054;2023-12-14T13:46:34;8.67;;;3.77;;
13999;SDS011;7075;53.574;10.054;2023-12-14T13:49:00;5.07;;;4.40;;
13999;SDS011;7075;53.574;10.054;2023-12-14T13:51:27;4.90;;;3.63;;
13999;SDS011;7075;53.574;10.054;2023-12-14T13:53:53;9.93;;;3.90;;
13999;SDS011;7075;53.574;10.054;2023-12-14T13:56:20;7.03;;;3.83;;
13999;SDS011;7075;53.574;10.054;2023-12-14T13:58:46;5.27;;;3.47;;
13999;SDS011;7075;53.574;10.054;2023-12-14T14:01:12;6.67;;;3.80;;
13999;SDS011;7075;53.574;10.054;2023-12-14T14:03:40;4.90;;;3.60;;
13999;SDS011;7075;53.574;10.054;2023-12-14T14:06:06;6.17;;;4.00;;
13999;SDS011;7075;53.574;10.054;2023-12-14T14:08:32;5.40;;;3.67;;
13999;SDS011;7075;53.574;10.054;2023-12-14T14:10:59;7.67;;;4.07;;
13999;SDS011;7075;53.574;10.054;2023-12-14T14:13:25;8.63;;;3.70;;
13999;SDS011;7075;53.574;10.054;2023-12-14T14:15:52;5.97;;;3.47;;
13999;SDS011;7075;53.574;10.054;2023-12-14T14:18:18;3.80;;;3.13;;
13999;SDS011;7075;53.574;10.054;2023-12-14T14:20:44;4.20;;;2.93;;
13999;SDS011;7075;53.574;10.054;2023-12-14T14:23:10;7.07;;;3.37;;
13999;SDS011;7075;53.574;10.054;2023-12-14T14:25:36;7.33;;;3.07;;
13999;SDS011;7075;53.574;10.054;2023-12-14T14:28:03;6.07;;;3.23;;
13999;SDS011;7075;53.574;10.054;2023-12-14T14:30:30;5.40;;;3.03;;
13999;SDS011;7075;53.574;10.054;2023-12-14T14:32:56;5.93;;;2.97;;
13999;SDS011;7075;53.574;10.054;2023-12-14T14:35:22;4.80;;;2.97;;
13999;SDS011;7075;53.574;10.054;2023-12-14T14:37:49;5.73;;;3.07;;
13999;SDS011;7075;53.574;10.054;2023-12-14T14:40:15;5.97;;;2.93;;
13999;SDS011;7075;53.574;10.054;2023-12-14T14:42:41;4.43;;;3.07;;
13999;SDS011;7075;53.574;10.054;2023-12-14T14:45:08;4.33;;;3.50;;
13999;SDS011;7075;53.574;10.054;2023-12-14T14:47:35;6.10;;;3.10;;
13999;SDS011;7075;53.574;10.054;2023-12-14T14:50:02;6.50;;;3.40;;
13999;SDS011;7075;53.574;10.054;2023-12-14T14:52:29;5.30;;;3.57;;